sensor_id;sensor_type;location;lat;lon;timestamp;P1;durP1;ratioP1;P2;durP2;ratioP2
48859;SDS011;34679;51.436;-2.518;2023-06-22T00:00:58;13.18;;;8.32;;
48859;SDS011;34679;51.436;-2.518;2023-06-22T00:03:24;12.63;;;8.48;;
48859;SDS011;34679;51.436;-2.518;2023-06-22T00:05:50;9.18;;;8.23;;
48859;SDS011;34679;51.436;-2.518;2023-06-22T00:08:17;10.95;;;8.65;;
48859;SDS011;34679;51.436;-2.518;2023-06-22T00:10:44;11.18;;;8.65;;
48859;SDS011;34679;51.436;-2.518;2023-06-22T00:13:10;12.60;;;8.82;;
48859;SDS011;34679;51.436;-2.518;2023-06-22T00:15:37;10.40;;;8.02;;
48859;SDS011;34679;51.436;-2.518;2023-06-22T00:18:04;12.73;;;8.15;;
48859;SDS011;34679;51.436;-2.518;2023-06-22T00:20:33;10.48;;;8.13;;
48859;SDS011;34679;51.436;-2.518;2023-06-22T00:23:02;9.30;;;8.32;;
48859;SDS011;34679;51.436;-2.518;2023-06-22T00:28:01;13.02;;;8.85;;
48859;SDS011;34679;51.436;-2.518;2023-06-22T00:30:28;10.80;;;8.45;;
48859;SDS011;34679;51.436;-2.518;2023-06-22T00:32:53;11.25;;;8.35;;
48859;SDS011;34679;51.436;-2.518;2023-06-22T00:35:19;10.38;;;9.10;;
48859;SDS011;34679;51.436;-2.518;2023-06-22T00:37:45;15.20;;;9.38;;
48859;SDS011;34679;51.436;-2.518;2023-06-22T00:40:11;10.93;;;9.35;;
48859;SDS011;34679;51.436;-2.518;2023-06-22T00:42:39;11.70;;;8.90;;
48859;SDS011;34679;51.436;-2.518;2023-06-22T00:45:06;11.90;;;9.02;;
48859;SDS011;34679;51.436;-2.518;2023-06-22T00:47:35;10.00;;;8.77;;
48859;SDS011;34679;51.436;-2.518;2023-06-22T00:50:03;11.00;;;8.95;;
48859;SDS011;34679;51.436;-2.518;2023-06-22T00:52:32;10.65;;;8.88;;
48859;SDS011;34679;51.436;-2.518;2023-06-22T00:55:00;15.65;;;9.50;;
48859;SDS011;34679;51.436;-2.518;2023-06-22T00:57:27;11.45;;;8.93;;
48859;SDS011;34679;51.436;-2.518;2023-06-22T00:59:54;10.98;;;9.00;;
48859;SDS011;34679;51.436;-2.518;2023-06-22T01:02:20;12.77;;;9.68;;
48859;SDS011;34679;51.436;-2.518;2023-06-22T01:04:46;9.77;;;8.65;;
48859;SDS011;34679;51.436;-2.518;2023-06-22T01:07:20;12.63;;;9.10;;
48859;SDS011;34679;51.436;-2.518;2023-06-22T01:13:01;13.02;;;9.63;;
48859;SDS011;34679;51.436;-2.518;2023-06-22T01:16:12;10.27;;;9.02;;
48859;SDS011;34679;51.436;-2.518;2023-06-22T01:18:21;10.32;;;8.68;;
48859;SDS011;34679;51.436;-2.518;2023-06-22T01:20:51;10.88;;;9.27;;
48859;SDS011;34679;51.436;-2.518;2023-06-22T01:28:43;14.68;;;9.95;;
48859;SDS011;34679;51.436;-2.518;2023-06-22T01:31:10;12.38;;;9.60;;
48859;SDS011;34679;51.436;-2.518;2023-06-22T01:33:37;11.68;;;9.07;;
48859;SDS011;34679;51.436;-2.518;2023-06-22T01:36:06;13.65;;;9.25;;
48859;SDS011;34679;51.436;-2.518;2023-06-22T01:38:33;14.18;;;9.55;;
48859;SDS011;34679;51.436;-2.518;2023-06-22T01:41:01;17.20;;;10.23;;
48859;SDS011;34679;51.436;-2.518;2023-06-22T01:43:27;14.23;;;9.02;;
48859;SDS011;34679;51.436;-2.518;2023-06-22T01:45:54;12.13;;;10.02;;
48859;SDS011;34679;51.436;-2.518;2023-06-22T01:48:21;15.07;;;10.23;;
48859;SDS011;34679;51.436;-2.518;2023-06-22T01:50:48;13.23;;;10.20;;
48859;SDS011;34679;51.436;-2.518;2023-06-22T01:53:14;11.80;;;9.75;;
48859;SDS011;34679;51.436;-2.518;2023-06-22T01:55:39;10.23;;;9.20;;
48859;SDS011;34679;51.436;-2.518;2023-06-22T01:58:05;12.80;;;9.52;;
48859;SDS011;34679;51.436;-2.518;2023-06-22T02:00:32;10.93;;;9.68;;
48859;SDS011;34679;51.436;-2.518;2023-06-22T02:05:36;15.88;;;9.57;;
48859;SDS011;34679;51.436;-2.518;2023-06-22T02:08:12;13.15;;;9.43;;
48859;SDS011;34679;51.436;-2.518;2023-06-22T02:10:43;12.20;;;9.30;;
48859;SDS011;34679;51.436;-2.518;2023-06-22T02:13:10;16.77;;;8.98;;
48859;SDS011;34679;51.436;-2.518;2023-06-22T02:15:38;11.65;;;9.10;;
48859;SDS011;34679;51.436;-2.518;2023-06-22T02:18:04;13.65;;;10.05;;
48859;SDS011;34679;51.436;-2.518;2023-06-22T02:20:30;13.57;;;9.18;;
48859;SDS011;34679;51.436;-2.518;2023-06-22T02:22:56;10.48;;;9.48;;
48859;SDS011;34679;51.436;-2.518;2023-06-22T02:25:22;11.43;;;10.05;;
48859;SDS011;34679;51.436;-2.518;2023-06-22T02:27:47;11.45;;;9.68;;
48859;SDS011;34679;51.436;-2.518;2023-06-22T02:30:15;11.27;;;8.90;;
48859;SDS011;34679;51.436;-2.518;2023-06-22T02:32:41;10.90;;;9.88;;
48859;SDS011;34679;51.436;-2.518;2023-06-22T02:35:08;14.23;;;9.95;;
48859;SDS011;34679;51.436;-2.518;2023-06-22T02:37:37;14.10;;;10.05;;
48859;SDS011;34679;51.436;-2.518;2023-06-22T02:40:06;13.10;;;9.35;;
48859;SDS011;34679;51.436;-2.518;2023-06-22T02:42:34;14.20;;;9.68;;
48859;SDS011;34679;51.436;-2.518;2023-06-22T02:45:00;13.65;;;11.02;;
48859;SDS011;34679;51.436;-2.518;2023-06-22T02:47:26;12.55;;;11.10;;
48859;SDS011;34679;51.436;-2.518;2023-06-22T02:49:52;12.35;;;10.25;;
48859;SDS011;34679;51.436;-2.518;2023-06-22T02:52:17;14.50;;;10.00;;
48859;SDS011;34679;51.436;-2.518;2023-06-22T02:54:43;13.93;;;9.35;;
48859;SDS011;34679;51.436;-2.518;2023-06-22T02:57:11;11.60;;;9.55;;
48859;SDS011;34679;51.436;-2.518;2023-06-22T02:59:41;13.82;;;10.95;;
48859;SDS011;34679;51.436;-2.518;2023-06-22T03:02:08;16.55;;;10.13;;
48859;SDS011;34679;51.436;-2.518;2023-06-22T03:04:35;14.23;;;10.13;;
48859;SDS011;34679;51.436;-2.518;2023-06-22T03:07:00;12.38;;;10.20;;
48859;SDS011;34679;51.436;-2.518;2023-06-22T03:09:27;13.50;;;10.70;;
48859;SDS011;34679;51.436;-2.518;2023-06-22T03:11:53;15.07;;;11.02;;
48859;SDS011;34679;51.436;-2.518;2023-06-22T03:14:19;13.35;;;10.68;;
48859;SDS011;34679;51.436;-2.518;2023-06-22T03:16:45;15.38;;;10.70;;
48859;SDS011;34679;51.436;-2.518;2023-06-22T03:19:11;17.35;;;11.13;;
48859;SDS011;34679;51.436;-2.518;2023-06-22T03:21:37;11.65;;;10.15;;
48859;SDS011;34679;51.436;-2.518;2023-06-22T03:24:06;13.10;;;10.77;;
48859;SDS011;34679;51.436;-2.518;2023-06-22T03:26:32;15.32;;;10.63;;
48859;SDS011;34679;51.436;-2.518;2023-06-22T03:28:58;14.68;;;10.88;;
48859;SDS011;34679;51.436;-2.518;2023-06-22T03:31:24;18.98;;;10.65;;
48859;SDS011;34679;51.436;-2.518;2023-06-22T03:33:50;13.65;;;10.35;;
48859;SDS011;34679;51.436;-2.518;2023-06-22T03:36:16;16.75;;;11.35;;
48859;SDS011;34679;51.436;-2.518;2023-06-22T03:38:48;15.65;;;11.18;;
48859;SDS011;34679;51.436;-2.518;2023-06-22T03:41:14;13.63;;;10.35;;
48859;SDS011;34679;51.436;-2.518;2023-06-22T03:43:40;15.15;;;10.52;;
48859;SDS011;34679;51.436;-2.518;2023-06-22T03:46:07;11.43;;;9.95;;
48859;SDS011;34679;51.436;-2.518;2023-06-22T03:48:33;12.48;;;9.55;;
48859;SDS011;34679;51.436;-2.518;2023-06-22T03:50:59;15.75;;;10.05;;
48859;SDS011;34679;51.436;-2.518;2023-06-22T03:53:26;12.27;;;10.35;;
48859;SDS011;34679;51.436;-2.518;2023-06-22T03:55:52;10.93;;;9.07;;
48859;SDS011;34679;51.436;-2.518;2023-06-22T03:58:18;13.57;;;10.60;;
48859;SDS011;34679;51.436;-2.518;2023-06-22T04:00:48;10.93;;;9.82;;
48859;SDS011;34679;51.436;-2.518;2023-06-22T04:03:15;9.90;;;8.88;;
48859;SDS011;34679;51.436;-2.518;2023-06-22T04:05:41;11.98;;;9.50;;
48859;SDS011;34679;51.436;-2.518;2023-06-22T04:08:07;14.43;;;9.90;;
48859;SDS011;34679;51.436;-2.518;2023-06-22T04:10:33;12.73;;;9.45;;
48859;SDS011;34679;51.436;-2.518;2023-06-22T04:12:59;11.90;;;10.25;;
48859;SDS011;34679;51.436;-2.518;2023-06-22T04:15:25;15.68;;;9.15;;
48859;SDS011;34679;51.436;-2.518;2023-06-22T04:17:51;13.20;;;10.05;;
48859;SDS011;34679;51.436;-2.518;2023-06-22T04:20:17;14.07;;;10.50;;
48859;SDS011;34679;51.436;-2.518;2023-06-22T04:22:42;13.55;;;10.52;;
48859;SDS011;34679;51.436;-2.518;2023-06-22T04:25:08;13.35;;;10.05;;
48859;SDS011;34679;51.436;-2.518;2023-06-22T04:27:34;14.13;;;9.63;;
48859;SDS011;34679;51.436;-2.518;2023-06-22T04:30:05;9.75;;;8.57;;
48859;SDS011;34679;51.436;-2.518;2023-06-22T04:32:32;17.65;;;9.27;;
48859;SDS011;34679;51.436;-2.518;2023-06-22T04:34:58;15.07;;;9.40;;
48859;SDS011;34679;51.436;-2.518;2023-06-22T04:37:27;10.52;;;9.00;;
48859;SDS011;34679;51.436;-2.518;2023-06-22T04:39:53;9.93;;;8.82;;
48859;SDS011;34679;51.436;-2.518;2023-06-22T04:42:19;10.10;;;8.80;;
48859;SDS011;34679;51.436;-2.518;2023-06-22T04:44:45;12.93;;;9.10;;
48859;SDS011;34679;51.436;-2.518;2023-06-22T04:47:10;10.00;;;9.00;;
48859;SDS011;34679;51.436;-2.518;2023-06-22T04:49:36;11.95;;;9.18;;
48859;SDS011;34679;51.436;-2.518;2023-06-22T04:52:05;11.68;;;8.93;;
48859;SDS011;34679;51.436;-2.518;2023-06-22T04:54:32;17.25;;;9.32;;
48859;SDS011;34679;51.436;-2.518;2023-06-22T04:56:59;10.30;;;9.02;;
48859;SDS011;34679;51.436;-2.518;2023-06-22T04:59:27;13.57;;;9.18;;
48859;SDS011;34679;51.436;-2.518;2023-06-22T05:01:58;17.42;;;9.88;;
48859;SDS011;34679;51.436;-2.518;2023-06-22T05:04:26;10.27;;;9.25;;
48859;SDS011;34679;51.436;-2.518;2023-06-22T05:07:00;11.50;;;8.55;;
48859;SDS011;34679;51.436;-2.518;2023-06-22T05:09:27;10.82;;;8.18;;
48859;SDS011;34679;51.436;-2.518;2023-06-22T05:11:53;11.02;;;7.75;;
48859;SDS011;34679;51.436;-2.518;2023-06-22T05:14:19;8.73;;;7.55;;
48859;SDS011;34679;51.436;-2.518;2023-06-22T05:16:45;13.00;;;7.65;;
48859;SDS011;34679;51.436;-2.518;2023-06-22T05:19:11;8.32;;;6.93;;
48859;SDS011;34679;51.436;-2.518;2023-06-22T05:21:37;9.82;;;6.55;;
48859;SDS011;34679;51.436;-2.518;2023-06-22T05:24:03;7.53;;;6.13;;
48859;SDS011;34679;51.436;-2.518;2023-06-22T05:26:30;7.20;;;6.50;;
48859;SDS011;34679;51.436;-2.518;2023-06-22T05:28:57;7.72;;;5.78;;
48859;SDS011;34679;51.436;-2.518;2023-06-22T05:31:23;8.73;;;6.45;;
48859;SDS011;34679;51.436;-2.518;2023-06-22T05:33:49;7.40;;;5.95;;
48859;SDS011;34679;51.436;-2.518;2023-06-22T05:36:16;7.72;;;5.85;;
48859;SDS011;34679;51.436;-2.518;2023-06-22T05:38:44;8.32;;;5.75;;
48859;SDS011;34679;51.436;-2.518;2023-06-22T05:41:11;9.40;;;5.85;;
48859;SDS011;34679;51.436;-2.518;2023-06-22T05:43:37;5.95;;;5.32;;
48859;SDS011;34679;51.436;-2.518;2023-06-22T05:46:03;6.60;;;6.07;;
48859;SDS011;34679;51.436;-2.518;2023-06-22T05:48:29;8.95;;;5.60;;
48859;SDS011;34679;51.436;-2.518;2023-06-22T05:50:55;8.25;;;5.45;;
48859;SDS011;34679;51.436;-2.518;2023-06-22T05:53:21;7.43;;;6.13;;
48859;SDS011;34679;51.436;-2.518;2023-06-22T05:55:46;7.90;;;5.57;;
48859;SDS011;34679;51.436;-2.518;2023-06-22T05:58:12;6.43;;;5.60;;
48859;SDS011;34679;51.436;-2.518;2023-06-22T06:00:38;6.32;;;5.72;;
48859;SDS011;34679;51.436;-2.518;2023-06-22T06:03:06;5.90;;;5.28;;
48859;SDS011;34679;51.436;-2.518;2023-06-22T06:05:33;6.10;;;5.28;;
48859;SDS011;34679;51.436;-2.518;2023-06-22T06:08:00;10.23;;;5.78;;
48859;SDS011;34679;51.436;-2.518;2023-06-22T06:10:26;6.07;;;5.05;;
48859;SDS011;34679;51.436;-2.518;2023-06-22T06:12:54;6.13;;;5.53;;
48859;SDS011;34679;51.436;-2.518;2023-06-22T06:15:20;5.80;;;5.30;;
48859;SDS011;34679;51.436;-2.518;2023-06-22T06:17:52;7.43;;;5.18;;
48859;SDS011;34679;51.436;-2.518;2023-06-22T06:20:20;7.53;;;5.43;;
48859;SDS011;34679;51.436;-2.518;2023-06-22T06:22:47;6.47;;;4.65;;
48859;SDS011;34679;51.436;-2.518;2023-06-22T06:25:13;7.32;;;4.72;;
48859;SDS011;34679;51.436;-2.518;2023-06-22T06:27:44;9.93;;;4.93;;
48859;SDS011;34679;51.436;-2.518;2023-06-22T06:30:11;6.95;;;4.40;;
48859;SDS011;34679;51.436;-2.518;2023-06-22T06:32:39;6.60;;;4.38;;
48859;SDS011;34679;51.436;-2.518;2023-06-22T06:35:06;5.10;;;4.00;;
48859;SDS011;34679;51.436;-2.518;2023-06-22T06:37:35;5.65;;;3.88;;
48859;SDS011;34679;51.436;-2.518;2023-06-22T06:40:02;7.13;;;4.28;;
48859;SDS011;34679;51.436;-2.518;2023-06-22T06:42:30;4.88;;;4.35;;
48859;SDS011;34679;51.436;-2.518;2023-06-22T06:44:56;5.68;;;4.78;;
48859;SDS011;34679;51.436;-2.518;2023-06-22T06:47:22;5.60;;;4.40;;
48859;SDS011;34679;51.436;-2.518;2023-06-22T06:49:48;5.20;;;4.22;;
48859;SDS011;34679;51.436;-2.518;2023-06-22T06:52:14;7.70;;;4.68;;
48859;SDS011;34679;51.436;-2.518;2023-06-22T06:54:39;5.18;;;3.92;;
48859;SDS011;34679;51.436;-2.518;2023-06-22T06:57:07;5.00;;;4.25;;
48859;SDS011;34679;51.436;-2.518;2023-06-22T06:59:35;4.78;;;4.15;;
48859;SDS011;34679;51.436;-2.518;2023-06-22T07:02:01;6.78;;;4.13;;
48859;SDS011;34679;51.436;-2.518;2023-06-22T07:04:27;7.78;;;4.15;;
48859;SDS011;34679;51.436;-2.518;2023-06-22T07:06:52;3.45;;;2.80;;
48859;SDS011;34679;51.436;-2.518;2023-06-22T07:09:18;3.97;;;2.92;;
48859;SDS011;34679;51.436;-2.518;2023-06-22T07:11:44;7.93;;;2.90;;
48859;SDS011;34679;51.436;-2.518;2023-06-22T07:14:09;3.75;;;2.50;;
48859;SDS011;34679;51.436;-2.518;2023-06-22T07:16:35;4.47;;;2.88;;
48859;SDS011;34679;51.436;-2.518;2023-06-22T07:19:01;2.97;;;2.63;;
48859;SDS011;34679;51.436;-2.518;2023-06-22T07:21:26;3.58;;;2.58;;
48859;SDS011;34679;51.436;-2.518;2023-06-22T07:23:52;3.80;;;2.40;;
48859;SDS011;34679;51.436;-2.518;2023-06-22T07:26:19;3.22;;;2.47;;
48859;SDS011;34679;51.436;-2.518;2023-06-22T07:28:44;5.10;;;2.83;;
48859;SDS011;34679;51.436;-2.518;2023-06-22T07:31:10;2.35;;;2.10;;
48859;SDS011;34679;51.436;-2.518;2023-06-22T07:33:36;2.42;;;2.00;;
48859;SDS011;34679;51.436;-2.518;2023-06-22T07:36:02;3.35;;;2.30;;
48859;SDS011;34679;51.436;-2.518;2023-06-22T07:38:32;4.18;;;1.98;;
48859;SDS011;34679;51.436;-2.518;2023-06-22T07:40:59;2.97;;;2.40;;
48859;SDS011;34679;51.436;-2.518;2023-06-22T07:43:24;5.00;;;2.13;;
48859;SDS011;34679;51.436;-2.518;2023-06-22T07:45:50;4.10;;;2.33;;
48859;SDS011;34679;51.436;-2.518;2023-06-22T07:48:22;3.58;;;2.22;;
48859;SDS011;34679;51.436;-2.518;2023-06-22T07:50:48;4.38;;;2.53;;
48859;SDS011;34679;51.436;-2.518;2023-06-22T07:53:14;2.30;;;2.10;;
48859;SDS011;34679;51.436;-2.518;2023-06-22T07:55:40;2.20;;;2.00;;
48859;SDS011;34679;51.436;-2.518;2023-06-22T07:58:06;2.67;;;1.80;;
48859;SDS011;34679;51.436;-2.518;2023-06-22T08:00:31;2.75;;;2.22;;
48859;SDS011;34679;51.436;-2.518;2023-06-22T08:02:58;9.93;;;3.03;;
48859;SDS011;34679;51.436;-2.518;2023-06-22T08:05:24;2.50;;;2.10;;
48859;SDS011;34679;51.436;-2.518;2023-06-22T08:07:50;6.38;;;3.00;;
48859;SDS011;34679;51.436;-2.518;2023-06-22T08:10:15;3.05;;;2.80;;
48859;SDS011;34679;51.436;-2.518;2023-06-22T08:12:42;4.03;;;2.50;;
48859;SDS011;34679;51.436;-2.518;2023-06-22T08:15:08;3.08;;;2.20;;
48859;SDS011;34679;51.436;-2.518;2023-06-22T08:17:36;4.28;;;2.13;;
48859;SDS011;34679;51.436;-2.518;2023-06-22T08:20:02;3.53;;;2.60;;
48859;SDS011;34679;51.436;-2.518;2023-06-22T08:22:34;8.63;;;6.13;;
48859;SDS011;34679;51.436;-2.518;2023-06-22T08:25:01;2.47;;;2.25;;
48859;SDS011;34679;51.436;-2.518;2023-06-22T08:27:28;2.80;;;2.55;;
48859;SDS011;34679;51.436;-2.518;2023-06-22T08:29:56;2.38;;;2.15;;
48859;SDS011;34679;51.436;-2.518;2023-06-22T08:32:29;2.70;;;2.10;;
48859;SDS011;34679;51.436;-2.518;2023-06-22T08:34:57;4.78;;;2.17;;
48859;SDS011;34679;51.436;-2.518;2023-06-22T08:37:23;2.65;;;2.05;;
48859;SDS011;34679;51.436;-2.518;2023-06-22T08:39:55;4.57;;;2.42;;
48859;SDS011;34679;51.436;-2.518;2023-06-22T08:42:21;2.47;;;2.28;;
48859;SDS011;34679;51.436;-2.518;2023-06-22T08:44:48;5.55;;;2.42;;
48859;SDS011;34679;51.436;-2.518;2023-06-22T08:47:13;2.67;;;2.47;;
48859;SDS011;34679;51.436;-2.518;2023-06-22T08:49:39;4.18;;;2.33;;
48859;SDS011;34679;51.436;-2.518;2023-06-22T08:52:05;9.70;;;3.53;;
48859;SDS011;34679;51.436;-2.518;2023-06-22T08:54:31;3.22;;;2.20;;
48859;SDS011;34679;51.436;-2.518;2023-06-22T08:56:58;4.70;;;2.55;;
48859;SDS011;34679;51.436;-2.518;2023-06-22T08:59:23;5.18;;;3.67;;
48859;SDS011;34679;51.436;-2.518;2023-06-22T09:01:49;5.40;;;3.92;;
48859;SDS011;34679;51.436;-2.518;2023-06-22T09:04:15;3.78;;;2.88;;
48859;SDS011;34679;51.436;-2.518;2023-06-22T09:06:40;3.40;;;2.65;;
48859;SDS011;34679;51.436;-2.518;2023-06-22T09:09:10;4.78;;;2.40;;
48859;SDS011;34679;51.436;-2.518;2023-06-22T09:11:37;4.75;;;2.67;;
48859;SDS011;34679;51.436;-2.518;2023-06-22T09:14:03;4.32;;;2.47;;
48859;SDS011;34679;51.436;-2.518;2023-06-22T09:16:29;5.07;;;1.85;;
48859;SDS011;34679;51.436;-2.518;2023-06-22T09:18:55;4.00;;;2.00;;
48859;SDS011;34679;51.436;-2.518;2023-06-22T09:21:21;8.02;;;1.90;;
48859;SDS011;34679;51.436;-2.518;2023-06-22T09:23:47;3.55;;;2.50;;
48859;SDS011;34679;51.436;-2.518;2023-06-22T09:26:16;3.70;;;2.20;;
48859;SDS011;34679;51.436;-2.518;2023-06-22T09:28:42;3.60;;;2.22;;
48859;SDS011;34679;51.436;-2.518;2023-06-22T09:31:08;4.10;;;1.88;;
48859;SDS011;34679;51.436;-2.518;2023-06-22T09:33:33;3.22;;;2.20;;
48859;SDS011;34679;51.436;-2.518;2023-06-22T09:36:00;2.13;;;1.92;;
48859;SDS011;34679;51.436;-2.518;2023-06-22T09:38:25;3.15;;;2.17;;
48859;SDS011;34679;51.436;-2.518;2023-06-22T09:40:51;4.75;;;2.00;;
48859;SDS011;34679;51.436;-2.518;2023-06-22T09:43:17;3.28;;;2.30;;
48859;SDS011;34679;51.436;-2.518;2023-06-22T09:45:42;4.13;;;2.58;;
48859;SDS011;34679;51.436;-2.518;2023-06-22T09:48:08;2.63;;;2.30;;
48859;SDS011;34679;51.436;-2.518;2023-06-22T09:50:35;3.75;;;2.10;;
48859;SDS011;34679;51.436;-2.518;2023-06-22T09:53:01;2.60;;;2.40;;
48859;SDS011;34679;51.436;-2.518;2023-06-22T09:55:27;3.55;;;2.65;;
48859;SDS011;34679;51.436;-2.518;2023-06-22T09:57:53;3.17;;;2.35;;
48859;SDS011;34679;51.436;-2.518;2023-06-22T10:00:20;2.35;;;2.00;;
48859;SDS011;34679;51.436;-2.518;2023-06-22T10:02:47;4.03;;;2.22;;
48859;SDS011;34679;51.436;-2.518;2023-06-22T10:05:12;3.40;;;2.03;;
48859;SDS011;34679;51.436;-2.518;2023-06-22T10:07:38;4.43;;;2.47;;
48859;SDS011;34679;51.436;-2.518;2023-06-22T10:10:07;2.47;;;2.20;;
48859;SDS011;34679;51.436;-2.518;2023-06-22T10:12:34;4.45;;;2.25;;
48859;SDS011;34679;51.436;-2.518;2023-06-22T10:15:00;3.00;;;2.60;;
48859;SDS011;34679;51.436;-2.518;2023-06-22T10:17:25;4.00;;;2.45;;
48859;SDS011;34679;51.436;-2.518;2023-06-22T10:19:51;3.38;;;2.25;;
48859;SDS011;34679;51.436;-2.518;2023-06-22T10:22:17;3.10;;;2.47;;
48859;SDS011;34679;51.436;-2.518;2023-06-22T10:24:43;2.85;;;2.38;;
48859;SDS011;34679;51.436;-2.518;2023-06-22T10:27:12;2.25;;;2.05;;
48859;SDS011;34679;51.436;-2.518;2023-06-22T10:29:38;3.13;;;2.40;;
48859;SDS011;34679;51.436;-2.518;2023-06-22T10:32:05;4.95;;;2.33;;
48859;SDS011;34679;51.436;-2.518;2023-06-22T10:34:31;3.05;;;2.40;;
48859;SDS011;34679;51.436;-2.518;2023-06-22T10:36:56;4.13;;;2.63;;
48859;SDS011;34679;51.436;-2.518;2023-06-22T10:39:22;3.40;;;2.25;;
48859;SDS011;34679;51.436;-2.518;2023-06-22T10:41:48;2.92;;;2.33;;
48859;SDS011;34679;51.436;-2.518;2023-06-22T10:44:13;4.75;;;2.30;;
48859;SDS011;34679;51.436;-2.518;2023-06-22T10:46:39;3.25;;;2.47;;
48859;SDS011;34679;51.436;-2.518;2023-06-22T10:49:05;2.58;;;2.30;;
48859;SDS011;34679;51.436;-2.518;2023-06-22T10:51:30;5.10;;;2.40;;
48859;SDS011;34679;51.436;-2.518;2023-06-22T10:53:57;3.58;;;2.55;;
48859;SDS011;34679;51.436;-2.518;2023-06-22T10:56:23;3.33;;;2.17;;
48859;SDS011;34679;51.436;-2.518;2023-06-22T10:58:49;2.67;;;2.08;;
48859;SDS011;34679;51.436;-2.518;2023-06-22T11:01:15;3.45;;;2.83;;
48859;SDS011;34679;51.436;-2.518;2023-06-22T11:03:40;2.85;;;2.33;;
48859;SDS011;34679;51.436;-2.518;2023-06-22T11:06:06;5.32;;;2.20;;
48859;SDS011;34679;51.436;-2.518;2023-06-22T11:08:32;3.42;;;1.95;;
48859;SDS011;34679;51.436;-2.518;2023-06-22T11:10:58;5.32;;;2.40;;
48859;SDS011;34679;51.436;-2.518;2023-06-22T11:13:23;2.70;;;2.50;;
48859;SDS011;34679;51.436;-2.518;2023-06-22T11:15:50;5.55;;;2.47;;
48859;SDS011;34679;51.436;-2.518;2023-06-22T11:18:15;3.33;;;2.40;;
48859;SDS011;34679;51.436;-2.518;2023-06-22T11:20:41;5.38;;;2.90;;
48859;SDS011;34679;51.436;-2.518;2023-06-22T11:23:07;5.03;;;2.67;;
48859;SDS011;34679;51.436;-2.518;2023-06-22T11:25:33;2.95;;;2.35;;
48859;SDS011;34679;51.436;-2.518;2023-06-22T11:28:03;4.35;;;2.30;;
48859;SDS011;34679;51.436;-2.518;2023-06-22T11:30:29;2.67;;;2.05;;
48859;SDS011;34679;51.436;-2.518;2023-06-22T11:32:58;2.75;;;2.40;;
48859;SDS011;34679;51.436;-2.518;2023-06-22T11:35:25;4.60;;;2.28;;
48859;SDS011;34679;51.436;-2.518;2023-06-22T11:37:50;2.20;;;2.00;;
48859;SDS011;34679;51.436;-2.518;2023-06-22T11:40:16;2.95;;;1.83;;
48859;SDS011;34679;51.436;-2.518;2023-06-22T11:42:42;3.05;;;1.80;;
48859;SDS011;34679;51.436;-2.518;2023-06-22T11:45:09;4.93;;;2.30;;
48859;SDS011;34679;51.436;-2.518;2023-06-22T11:47:35;3.78;;;2.38;;
48859;SDS011;34679;51.436;-2.518;2023-06-22T11:50:01;4.90;;;2.58;;
48859;SDS011;34679;51.436;-2.518;2023-06-22T11:52:27;5.22;;;2.38;;
48859;SDS011;34679;51.436;-2.518;2023-06-22T11:54:55;3.97;;;2.03;;
48859;SDS011;34679;51.436;-2.518;2023-06-22T11:57:22;2.40;;;1.92;;
48859;SDS011;34679;51.436;-2.518;2023-06-22T11:59:47;3.88;;;2.30;;
48859;SDS011;34679;51.436;-2.518;2023-06-22T12:02:13;4.82;;;2.20;;
48859;SDS011;34679;51.436;-2.518;2023-06-22T12:04:39;4.38;;;2.50;;
48859;SDS011;34679;51.436;-2.518;2023-06-22T12:07:04;3.42;;;2.53;;
48859;SDS011;34679;51.436;-2.518;2023-06-22T12:09:30;3.50;;;2.22;;
48859;SDS011;34679;51.436;-2.518;2023-06-22T12:11:56;4.10;;;2.03;;
48859;SDS011;34679;51.436;-2.518;2023-06-22T12:14:21;3.42;;;2.40;;
48859;SDS011;34679;51.436;-2.518;2023-06-22T12:16:47;2.85;;;2.20;;
48859;SDS011;34679;51.436;-2.518;2023-06-22T12:19:13;3.20;;;2.10;;
48859;SDS011;34679;51.436;-2.518;2023-06-22T12:21:38;3.42;;;1.98;;
48859;SDS011;34679;51.436;-2.518;2023-06-22T12:24:05;3.58;;;1.70;;
48859;SDS011;34679;51.436;-2.518;2023-06-22T12:26:31;2.83;;;1.98;;
48859;SDS011;34679;51.436;-2.518;2023-06-22T12:28:57;2.72;;;2.05;;
48859;SDS011;34679;51.436;-2.518;2023-06-22T12:31:22;12.10;;;2.67;;
48859;SDS011;34679;51.436;-2.518;2023-06-22T12:33:48;2.05;;;1.85;;
48859;SDS011;34679;51.436;-2.518;2023-06-22T12:36:14;5.63;;;2.10;;
48859;SDS011;34679;51.436;-2.518;2023-06-22T12:38:41;2.95;;;2.10;;
48859;SDS011;34679;51.436;-2.518;2023-06-22T12:41:07;5.07;;;2.15;;
48859;SDS011;34679;51.436;-2.518;2023-06-22T12:43:32;3.58;;;1.77;;
48859;SDS011;34679;51.436;-2.518;2023-06-22T12:45:58;5.78;;;2.50;;
48859;SDS011;34679;51.436;-2.518;2023-06-22T12:48:25;4.25;;;2.22;;
48859;SDS011;34679;51.436;-2.518;2023-06-22T12:50:52;3.20;;;1.85;;
48859;SDS011;34679;51.436;-2.518;2023-06-22T12:53:18;2.67;;;2.00;;
48859;SDS011;34679;51.436;-2.518;2023-06-22T12:55:43;7.80;;;2.20;;
48859;SDS011;34679;51.436;-2.518;2023-06-22T12:58:09;6.60;;;2.15;;
48859;SDS011;34679;51.436;-2.518;2023-06-22T13:03:56;8.25;;;2.40;;
48859;SDS011;34679;51.436;-2.518;2023-06-22T13:06:23;4.78;;;2.78;;
48859;SDS011;34679;51.436;-2.518;2023-06-22T13:08:48;4.25;;;2.13;;
48859;SDS011;34679;51.436;-2.518;2023-06-22T13:11:14;2.60;;;2.17;;
48859;SDS011;34679;51.436;-2.518;2023-06-22T13:13:40;6.25;;;2.67;;
48859;SDS011;34679;51.436;-2.518;2023-06-22T13:16:06;5.00;;;2.63;;
48859;SDS011;34679;51.436;-2.518;2023-06-22T13:18:32;6.18;;;2.55;;
48859;SDS011;34679;51.436;-2.518;2023-06-22T13:21:00;12.18;;;2.22;;
48859;SDS011;34679;51.436;-2.518;2023-06-22T13:23:29;2.92;;;2.17;;
48859;SDS011;34679;51.436;-2.518;2023-06-22T13:25:55;4.60;;;2.38;;
48859;SDS011;34679;51.436;-2.518;2023-06-22T13:28:21;5.65;;;1.90;;
48859;SDS011;34679;51.436;-2.518;2023-06-22T13:30:47;5.13;;;2.55;;
48859;SDS011;34679;51.436;-2.518;2023-06-22T13:33:13;4.20;;;2.38;;
48859;SDS011;34679;51.436;-2.518;2023-06-22T13:35:39;3.55;;;2.20;;
48859;SDS011;34679;51.436;-2.518;2023-06-22T13:38:07;4.32;;;2.15;;
48859;SDS011;34679;51.436;-2.518;2023-06-22T13:40:34;3.88;;;2.00;;
48859;SDS011;34679;51.436;-2.518;2023-06-22T13:43:00;5.60;;;2.40;;
48859;SDS011;34679;51.436;-2.518;2023-06-22T13:45:26;3.53;;;1.98;;
48859;SDS011;34679;51.436;-2.518;2023-06-22T13:47:52;3.97;;;2.08;;
48859;SDS011;34679;51.436;-2.518;2023-06-22T13:50:17;4.30;;;2.15;;
48859;SDS011;34679;51.436;-2.518;2023-06-22T13:52:43;3.45;;;2.10;;
48859;SDS011;34679;51.436;-2.518;2023-06-22T13:55:09;4.93;;;2.70;;
48859;SDS011;34679;51.436;-2.518;2023-06-22T13:57:35;3.65;;;1.98;;
48859;SDS011;34679;51.436;-2.518;2023-06-22T14:00:02;4.43;;;2.25;;
48859;SDS011;34679;51.436;-2.518;2023-06-22T14:02:30;4.13;;;2.10;;
48859;SDS011;34679;51.436;-2.518;2023-06-22T14:04:56;4.22;;;1.90;;
48859;SDS011;34679;51.436;-2.518;2023-06-22T14:07:21;6.55;;;2.38;;
48859;SDS011;34679;51.436;-2.518;2023-06-22T14:09:49;2.42;;;2.17;;
48859;SDS011;34679;51.436;-2.518;2023-06-22T14:12:15;7.45;;;2.53;;
48859;SDS011;34679;51.436;-2.518;2023-06-22T14:14:42;2.97;;;1.80;;
48859;SDS011;34679;51.436;-2.518;2023-06-22T14:17:08;4.57;;;2.08;;
48859;SDS011;34679;51.436;-2.518;2023-06-22T14:19:35;2.03;;;1.80;;
48859;SDS011;34679;51.436;-2.518;2023-06-22T14:22:01;6.80;;;2.30;;
48859;SDS011;34679;51.436;-2.518;2023-06-22T14:24:27;1.92;;;1.75;;
48859;SDS011;34679;51.436;-2.518;2023-06-22T14:26:53;4.85;;;1.90;;
48859;SDS011;34679;51.436;-2.518;2023-06-22T14:29:21;3.38;;;1.92;;
48859;SDS011;34679;51.436;-2.518;2023-06-22T14:31:48;6.00;;;2.08;;
48859;SDS011;34679;51.436;-2.518;2023-06-22T14:34:14;2.33;;;1.80;;
48859;SDS011;34679;51.436;-2.518;2023-06-22T14:36:41;4.95;;;2.10;;
48859;SDS011;34679;51.436;-2.518;2023-06-22T14:39:07;3.13;;;1.80;;
48859;SDS011;34679;51.436;-2.518;2023-06-22T14:41:33;3.70;;;2.15;;